createdAt,value
2024-02-16T00:01:57.519Z,0
2024-02-16T00:07:01.326Z,0
2024-02-16T00:11:57.467Z,0
2024-02-16T00:16:52.838Z,0
2024-02-16T00:21:54.279Z,0
2024-02-16T00:26:57.368Z,0
2024-02-16T00:32:00.341Z,0
2024-02-16T00:37:01.702Z,0
2024-02-16T00:42:03.387Z,0
2024-02-16T00:47:03.640Z,0
2024-02-16T00:52:07.185Z,0
2024-02-16T00:57:03.619Z,0
2024-02-16T01:02:01.579Z,1
2024-02-16T01:07:04.680Z,0
2024-02-16T01:12:04.040Z,0
2024-02-16T01:17:02.611Z,0
2024-02-16T01:22:06.350Z,0
2024-02-16T01:27:03.238Z,0
2024-02-16T01:32:07.289Z,2.5
2024-02-16T01:37:09.089Z,0
2024-02-16T01:42:01.185Z,0
2024-02-16T01:46:58.312Z,0
2024-02-16T01:51:59.356Z,0
2024-02-16T01:57:00.373Z,2.5
2024-02-16T02:01:59.401Z,0
2024-02-16T02:07:02.051Z,0
2024-02-16T02:12:01.269Z,0
2024-02-16T02:17:01.589Z,0
2024-02-16T02:22:01.663Z,0
2024-02-16T02:27:02.396Z,0
2024-02-16T02:31:53.451Z,0
2024-02-16T02:37:00.789Z,0
2024-02-16T02:41:56.362Z,0
2024-02-16T02:46:55.412Z,0
2024-02-16T02:51:50.847Z,0
2024-02-16T02:56:49.039Z,0
2024-02-16T03:02:33.932Z,0
2024-02-16T03:06:49.782Z,0
2024-02-16T03:11:46.936Z,0
2024-02-16T03:16:49.261Z,0
2024-02-16T03:21:48.145Z,0
2024-02-16T03:26:50.907Z,0
2024-02-16T03:31:55.836Z,0
2024-02-16T03:36:57.724Z,0
2024-02-16T03:41:50.009Z,0
2024-02-16T03:47:01.387Z,0
2024-02-16T03:52:00.129Z,0
2024-02-16T03:56:51.758Z,0
2024-02-16T04:01:52.349Z,0
2024-02-16T04:07:04.795Z,0
2024-02-16T04:12:01.081Z,0
2024-02-16T04:17:06.364Z,0
2024-02-16T04:21:59.033Z,0
2024-02-16T04:27:07.652Z,0
2024-02-16T04:32:05.156Z,0
2024-02-16T04:36:51.439Z,0
2024-02-16T04:42:07.161Z,0
2024-02-16T04:47:06.900Z,0
2024-02-16T04:52:00.202Z,0
2024-02-16T04:57:01.464Z,2.5
2024-02-16T05:02:04.243Z,2.333
2024-02-16T05:07:02.854Z,0
2024-02-16T05:12:01.026Z,2.5
2024-02-16T05:17:07.091Z,1.333
2024-02-16T05:22:00.694Z,0
2024-02-16T05:27:00.537Z,0
2024-02-16T05:31:50.923Z,0
2024-02-16T05:36:54.329Z,1
2024-02-16T05:41:58.354Z,2.562
2024-02-16T05:46:54.931Z,6.462
2024-02-16T05:51:57.304Z,13.385
2024-02-16T05:56:51.835Z,23.154
2024-02-16T06:01:55.137Z,35.538
2024-02-16T06:06:51.748Z,50.4
2024-02-16T06:11:52.144Z,67.692
2024-02-16T06:16:51.581Z,82.769
2024-02-16T06:21:53.250Z,98.769
2024-02-16T06:26:51.271Z,126.667
2024-02-16T06:31:50.563Z,162.727
2024-02-16T06:36:51.466Z,176.091
2024-02-16T06:41:51.082Z,208.3
2024-02-16T06:46:51.281Z,228.2
2024-02-16T06:51:53.078Z,245.2
2024-02-16T06:56:51.563Z,228
2024-02-16T07:01:51.889Z,351.75
2024-02-16T07:06:51.603Z,537
2024-02-16T07:11:52.288Z,711.625
2024-02-16T07:16:51.340Z,741.625
2024-02-16T07:21:54.064Z,524.5
2024-02-16T07:26:52.057Z,617.375
2024-02-16T07:31:51.477Z,616.125
2024-02-16T07:36:55.297Z,840.125
2024-02-16T07:42:10.076Z,546.625
2024-02-16T07:47:04.457Z,486.375
2024-02-16T07:52:04.803Z,1140.125
2024-02-16T07:56:58.631Z,1293.75
2024-02-16T08:02:01.698Z,923.125
2024-02-16T08:07:10.370Z,800.125
2024-02-16T08:12:06.231Z,1327.5
2024-02-16T08:17:12.435Z,937.75
2024-02-16T08:22:01.657Z,991.875
2024-02-16T08:27:01.170Z,1235.875
2024-02-16T08:32:05.130Z,1029.625
2024-02-16T08:37:11.406Z,1536.375
2024-02-16T08:42:07.137Z,1507.5
2024-02-16T08:47:07.328Z,1879
2024-02-16T08:52:08.967Z,2567.167
2024-02-16T08:57:10.183Z,2604.167
2024-02-16T09:02:05.397Z,2941
2024-02-16T09:07:15.950Z,2991
2024-02-16T09:12:10.269Z,3054
2024-02-16T09:17:12.878Z,3088.8
2024-02-16T09:22:15.101Z,3125.8
2024-02-16T09:26:58.616Z,3179.6
2024-02-16T09:32:04.280Z,3210
2024-02-16T09:37:01.929Z,3244.4
2024-02-16T09:42:01.879Z,3284
2024-02-16T09:47:08.351Z,3319.4
2024-02-16T09:51:57.779Z,3346.2
2024-02-16T09:56:56.733Z,3405.4
2024-02-16T10:02:04.205Z,3433.8
2024-02-16T10:07:07.011Z,3462.8
2024-02-16T10:11:55.446Z,3477.8
2024-02-16T10:17:01.391Z,3478.2
2024-02-16T10:22:10.416Z,3511.6
2024-02-16T10:27:03.236Z,3528.6
2024-02-16T10:31:58.351Z,3541
2024-02-16T10:37:07.769Z,3523.4
2024-02-16T10:41:55.489Z,3550.8
2024-02-16T10:47:19.241Z,3537.8
2024-02-16T10:52:01.503Z,3562.2
2024-02-16T10:56:57.975Z,3515.6
2024-02-16T11:02:05.155Z,3543.2
2024-02-16T11:06:59.193Z,3543.6
2024-02-16T11:12:01.001Z,3597.8
2024-02-16T11:17:05.009Z,3562.4
2024-02-16T11:22:11.818Z,3576
2024-02-16T11:27:07.508Z,3559.6
2024-02-16T11:32:10.297Z,3532.4
2024-02-16T11:37:06.794Z,3340.2
2024-02-16T11:42:03.912Z,1999
2024-02-16T11:47:03.122Z,792
2024-02-16T11:52:15.375Z,599.25
2024-02-16T11:57:09.498Z,544
2024-02-16T12:02:14.107Z,523.625
2024-02-16T12:07:07.493Z,516.375
2024-02-16T12:12:04.568Z,511.625
2024-02-16T12:17:10.796Z,504.5
2024-02-16T12:22:10.966Z,495.875
2024-02-16T12:27:04.248Z,488.625
2024-02-16T12:32:12.828Z,479.625
2024-02-16T12:37:07.036Z,468.125
2024-02-16T12:41:54.110Z,457.25
2024-02-16T12:46:58.297Z,450.125
2024-02-16T12:52:02.524Z,443.375
2024-02-16T12:56:58.427Z,430.875
2024-02-16T13:02:27.966Z,421.5
2024-02-16T13:06:57.007Z,413.375
2024-02-16T13:11:56.437Z,399.125
2024-02-16T13:16:59.628Z,389
2024-02-16T13:21:57.875Z,381.5
2024-02-16T13:26:58.490Z,373.5
2024-02-16T13:32:01.458Z,361.875
2024-02-16T13:36:54.912Z,359.75
2024-02-16T13:41:55.398Z,351
2024-02-16T13:47:01.117Z,344.875
2024-02-16T13:52:03.658Z,337.25
2024-02-16T13:56:56.029Z,329.75
2024-02-16T14:02:00.621Z,318.75
2024-02-16T14:06:53.174Z,313.875
2024-02-16T14:11:57.452Z,306.125
2024-02-16T14:16:51.909Z,299.125
2024-02-16T14:21:57.087Z,291.875
2024-02-16T14:26:55.566Z,283.875
2024-02-16T14:32:09.592Z,273.556
2024-02-16T14:36:52.356Z,264.778
2024-02-16T14:41:57.667Z,233.9
2024-02-16T14:46:59.560Z,227.5
2024-02-16T14:52:13.199Z,220.8
2024-02-16T14:57:10.782Z,213.2
2024-02-16T15:02:12.900Z,206
2024-02-16T15:07:02.194Z,196.6
2024-02-16T15:11:58.513Z,177.273
2024-02-16T15:16:55.340Z,169.091
2024-02-16T15:21:57.833Z,161.182
2024-02-16T15:27:06.707Z,152.091
2024-02-16T15:32:00.911Z,132.417
2024-02-16T15:36:56.956Z,120.083
2024-02-16T15:42:04.089Z,101.615
2024-02-16T15:46:55.024Z,91.923
2024-02-16T15:52:04.247Z,79.308
2024-02-16T15:56:59.753Z,64.923
2024-02-16T16:02:02.063Z,49.467
2024-02-16T16:06:58.606Z,33.615
2024-02-16T16:11:54.722Z,22.077
2024-02-16T16:16:53.489Z,12.692
2024-02-16T16:21:56.475Z,5.8
2024-02-16T16:26:53.744Z,2.333
2024-02-16T16:31:57.035Z,1
2024-02-16T16:36:55.734Z,0
2024-02-16T16:41:58.764Z,0
2024-02-16T16:46:54.325Z,0
2024-02-16T16:51:55.058Z,3
2024-02-16T16:56:56.550Z,0
2024-02-16T17:01:57.722Z,1.5
2024-02-16T17:06:52.294Z,0
2024-02-16T17:11:52.412Z,2
2024-02-16T17:16:52.741Z,0
2024-02-16T17:21:52.476Z,0
2024-02-16T17:26:48.422Z,0
2024-02-16T17:31:49.338Z,0
2024-02-16T17:36:49.762Z,0
2024-02-16T17:41:54.020Z,0
2024-02-16T17:46:52.550Z,0
2024-02-16T17:51:50.375Z,0
2024-02-16T17:56:50.541Z,1.333
2024-02-16T18:01:53.479Z,0
2024-02-16T18:06:46.686Z,2.5
2024-02-16T18:11:46.941Z,0
2024-02-16T18:16:47.600Z,0
2024-02-16T18:21:54.617Z,0
2024-02-16T18:26:56.159Z,0
2024-02-16T18:32:00.323Z,0
2024-02-16T18:36:56.517Z,0
2024-02-16T18:41:54.932Z,0
2024-02-16T18:46:56.677Z,0
2024-02-16T18:51:59.100Z,0
2024-02-16T18:56:54.716Z,0
2024-02-16T19:02:01.064Z,1.5
2024-02-16T19:06:57.132Z,0
2024-02-16T19:12:05.317Z,0
2024-02-16T19:17:02.165Z,0
2024-02-16T19:21:59.614Z,0
2024-02-16T19:27:03.353Z,0
2024-02-16T19:32:04.463Z,0
2024-02-16T19:37:04.415Z,0
2024-02-16T19:42:05.698Z,0
2024-02-16T19:47:14.605Z,0
2024-02-16T19:51:53.327Z,0
2024-02-16T19:56:51.633Z,0
2024-02-16T20:01:51.882Z,0
2024-02-16T20:06:54.742Z,1.5
2024-02-16T20:11:50.826Z,0
2024-02-16T20:16:50.760Z,0
2024-02-16T20:21:55.602Z,0
2024-02-16T20:26:57.955Z,0
2024-02-16T20:31:53.571Z,0
2024-02-16T20:36:50.477Z,0
2024-02-16T20:41:53.597Z,0
2024-02-16T20:46:58.375Z,0
2024-02-16T20:51:46.739Z,1.5
2024-02-16T20:56:52.662Z,0
2024-02-16T21:01:51.646Z,1
2024-02-16T21:06:51.127Z,1
2024-02-16T21:11:51.826Z,0
2024-02-16T21:16:56.225Z,3
2024-02-16T21:21:50.323Z,0
2024-02-16T21:26:48.358Z,2
2024-02-16T21:31:55.490Z,2.5
2024-02-16T21:36:50.537Z,0
2024-02-16T21:41:52.388Z,0
2024-02-16T21:46:52.594Z,0
2024-02-16T21:51:47.219Z,0
2024-02-16T21:56:51.824Z,0
2024-02-16T22:02:01.985Z,0
2024-02-16T22:07:01.612Z,1
2024-02-16T22:12:02.511Z,0
2024-02-16T22:17:07.946Z,0
2024-02-16T22:22:01.422Z,1.5
2024-02-16T22:27:03.692Z,0
2024-02-16T22:32:04.758Z,0
2024-02-16T22:37:01.185Z,0
2024-02-16T22:41:59.801Z,0
2024-02-16T22:47:03.568Z,0
2024-02-16T22:52:01.848Z,0
2024-02-16T22:57:00.758Z,0
2024-02-16T23:02:19.230Z,0
2024-02-16T23:06:58.954Z,0
2024-02-16T23:12:05.437Z,0
2024-02-16T23:17:06.435Z,0
2024-02-16T23:22:11.951Z,0
2024-02-16T23:26:55.597Z,0
2024-02-16T23:32:03.872Z,0
2024-02-16T23:37:06.031Z,0
2024-02-16T23:41:59.633Z,0
2024-02-16T23:46:59.170Z,2.5
2024-02-16T23:52:03.553Z,0
2024-02-16T23:56:52.830Z,3
